Impacts TAF Board
For situational awareness. Not to be used for flight planning purposes.
IDs:

KPHX - Phoenix/Sky Harbor, AZ, US

Issued at 2058 UTC 20 Jun 2019
Updated at 2147 UTC 20 Jun 2019
Potential Impact None Slight Moderate High
Time2051Z 20/22Z 20/23Z 21/00Z 21/01Z 21/02Z 21/03Z 21/04Z 21/05Z 21/06Z 21/07Z 21/08Z 21/09Z 21/10Z>>
Type OBS PRVL PRVL PRVL PRVL PRVL PRVL PRVL PRVL PRVL PRVL PRVL PRVL PRVL
VIS 10 >6 >6 >6 >6 >6 >6 >6 >6 >6 >6 >6 >6 >6
CIG -- -- -- -- -- -- -- -- -- -- -- -- -- --
Cover CLR SKC SKC SKC SKC SKC SKC SKC SKC SKC SKC SKC SKC SKC
FltCat VFR VFR VFR VFR VFR VFR VFR VFR VFR VFR VFR VFR VFR VFR
WX -- -- -- -- -- -- -- -- -- -- -- -- -- --
WDir 260 250 270 270 270 270 270 250 250 250 250 100 100 100
WSpd 3 6 10 10 10 10 10 8 8 8 8 5 5 5
WGst -- -- 18 18 18 18 18 -- -- -- -- -- -- --
R07/25
XWnd -1 -2 -0 -0 -0 -0 -0 -3 -3 -3 -3 -1 -1 -1
XGst -- -- -0 -0 -0 -0 -0 -- -- -- -- -- -- --
HWnd -3 -6 -10 -10 -10 -10 -10 -8 -8 -8 -8 5 5 5
HGst -- -- -18 -18 -18 -18 -18 -- -- -- -- -- -- --
R08/26
XWnd -1 -2 -0 -0 -0 -0 -0 -3 -3 -3 -3 -1 -1 -1
XGst -- -- -0 -0 -0 -0 -0 -- -- -- -- -- -- --
HWnd -3 -6 -10 -10 -10 -10 -10 -8 -8 -8 -8 5 5 5
HGst -- -- -18 -18 -18 -18 -18 -- -- -- -- -- -- --
Raw TAF
KPHX 202058Z 2021/2124 25006KT P6SM SKC
  FM202300 27010G18KT P6SM SKC
  FM210400 25008KT P6SM SKC
  FM210800 10005KT P6SM SKC
  FM212100 25009KT P6SM SKC


Raw METAR
KPHX 202051Z 26003KT 10SM CLR 37/M06 A2977 RMK AO2 SLP060 FU PLUME DSNT E T03721056 58021
KPHX 201951Z VRB06KT 10SM CLR 38/M07 A2980 RMK AO2 SLP069 FU PLUME DSNT E T03781067
KPHX 201851Z 00000KT 10SM CLR 35/M08 A2982 RMK AO2 SLP077 FU DSNT E T03501078

METAR Board
Radar Display
Forecast Discussion
For situational awareness. Not to be used for flight planning purposes.